createdAt,value
2018-09-17T00:00:38.568Z,14.50
2018-09-17T00:03:06.950Z,14.50
2018-09-17T00:05:35.333Z,14.50
2018-09-17T00:08:03.685Z,14.50
2018-09-17T00:10:32.068Z,14.50
2018-09-17T00:13:00.418Z,14.50
2018-09-17T00:15:28.812Z,14.50
2018-09-17T00:17:57.201Z,14.50
2018-09-17T00:20:25.884Z,14.50
2018-09-17T00:22:54.251Z,14.50
2018-09-17T00:25:22.570Z,14.50
2018-09-17T00:27:50.912Z,14.50
2018-09-17T00:30:19.273Z,14.40
2018-09-17T00:32:47.580Z,14.40
2018-09-17T00:35:15.927Z,14.40
2018-09-17T00:37:44.312Z,14.40
2018-09-17T00:40:12.678Z,14.30
2018-09-17T00:42:41.047Z,14.30
2018-09-17T00:45:09.380Z,14.30
2018-09-17T00:47:37.760Z,14.30
2018-09-17T00:50:06.121Z,14.30
2018-09-17T00:52:34.450Z,14.20
2018-09-17T00:55:02.808Z,14.20
2018-09-17T00:57:31.136Z,14.20
2018-09-17T00:59:59.458Z,14.20
2018-09-17T01:02:27.785Z,14.20
2018-09-17T01:04:56.141Z,14.20
2018-09-17T01:07:24.514Z,14.20
2018-09-17T01:09:52.851Z,14.20
2018-09-17T01:12:21.191Z,14.20
2018-09-17T01:14:49.497Z,14.20
2018-09-17T01:17:17.852Z,14.20
2018-09-17T01:19:46.210Z,14.20
2018-09-17T01:22:14.512Z,14.20
2018-09-17T01:24:42.843Z,14.20
2018-09-17T01:27:11.157Z,14.20
2018-09-17T01:29:39.840Z,14.20
2018-09-17T01:32:08.201Z,14.20
2018-09-17T01:34:36.554Z,14.10
2018-09-17T01:37:04.864Z,14.10
2018-09-17T01:39:33.159Z,14.10
2018-09-17T01:42:01.506Z,14.10
2018-09-17T01:44:29.856Z,14.10
2018-09-17T01:46:58.181Z,14.10
2018-09-17T01:49:26.533Z,14.10
2018-09-17T01:51:54.847Z,14.10
2018-09-17T01:54:23.205Z,14.00
2018-09-17T01:56:51.555Z,14.00
2018-09-17T01:59:19.938Z,14.00
2018-09-17T02:01:48.297Z,14.00
2018-09-17T02:04:16.670Z,14.00
2018-09-17T02:06:45.002Z,14.00
2018-09-17T02:09:13.372Z,14.00
2018-09-17T02:11:41.873Z,14.10
2018-09-17T02:14:10.200Z,14.10
2018-09-17T02:16:38.860Z,14.10
2018-09-17T02:19:07.207Z,14.10
2018-09-17T02:21:35.542Z,14.10
2018-09-17T02:24:04.095Z,14.10
2018-09-17T02:26:32.418Z,14.10
2018-09-17T02:29:00.820Z,14.00
2018-09-17T02:31:29.155Z,14.10
2018-09-17T02:33:57.477Z,14.10
2018-09-17T02:36:25.820Z,14.10
2018-09-17T02:38:54.138Z,14.00
2018-09-17T02:41:22.496Z,14.10
2018-09-17T02:43:50.811Z,14.00
2018-09-17T02:46:19.148Z,14.00
2018-09-17T02:48:47.481Z,14.00
2018-09-17T02:51:15.824Z,14.00
2018-09-17T02:53:44.204Z,14.00
2018-09-17T02:56:12.713Z,14.00
2018-09-17T02:58:41.061Z,14.00
2018-09-17T03:01:09.394Z,14.00
2018-09-17T03:03:37.712Z,14.00
2018-09-17T03:06:06.025Z,14.00
2018-09-17T03:08:34.394Z,14.00
2018-09-17T03:11:02.702Z,14.00
2018-09-17T03:13:31.028Z,14.00
2018-09-17T03:15:59.351Z,14.00
2018-09-17T03:18:39.531Z,14.00
2018-09-17T03:21:08.321Z,14.00
2018-09-17T03:23:37.742Z,14.00
2018-09-17T03:26:06.450Z,14.00
2018-09-17T03:28:34.770Z,14.00
2018-09-17T03:31:03.059Z,14.00
2018-09-17T03:33:31.447Z,14.00
2018-09-17T03:36:00.004Z,14.00
2018-09-17T03:38:37.832Z,14.00
2018-09-17T03:41:07.023Z,14.00
2018-09-17T03:43:36.117Z,14.00
2018-09-17T03:46:04.668Z,14.00
2018-09-17T03:48:34.020Z,14.10
2018-09-17T03:51:03.420Z,14.10
2018-09-17T03:53:32.070Z,14.10
2018-09-17T03:56:00.416Z,14.10
2018-09-17T03:58:29.295Z,14.10
2018-09-17T04:00:57.878Z,14.10
2018-09-17T04:03:26.221Z,14.10
2018-09-17T04:05:54.561Z,14.10
2018-09-17T04:08:22.908Z,14.10
2018-09-17T04:10:51.240Z,14.10
2018-09-17T04:13:19.565Z,14.10
2018-09-17T04:15:48.025Z,14.10
2018-09-17T04:18:16.444Z,14.10
2018-09-17T04:20:44.766Z,14.10
2018-09-17T04:23:13.146Z,14.00
2018-09-17T04:25:41.500Z,14.00
2018-09-17T04:28:09.853Z,14.00
2018-09-17T04:30:38.207Z,14.00
2018-09-17T04:33:07.509Z,14.00
2018-09-17T04:35:35.968Z,14.00
2018-09-17T04:38:04.295Z,14.00
2018-09-17T04:40:32.604Z,13.90
2018-09-17T04:43:00.938Z,13.90
2018-09-17T04:45:29.324Z,13.90
2018-09-17T04:47:57.639Z,13.90
2018-09-17T04:50:25.991Z,13.90
2018-09-17T04:52:54.278Z,13.90
2018-09-17T04:55:22.585Z,13.90
2018-09-17T04:57:50.920Z,13.80
2018-09-17T05:00:19.292Z,13.80
2018-09-17T05:02:47.627Z,13.80
2018-09-17T05:05:15.977Z,13.80
2018-09-17T05:07:44.334Z,13.80
2018-09-17T05:10:12.650Z,13.80
2018-09-17T05:12:41.039Z,13.80
2018-09-17T05:15:09.363Z,13.80
2018-09-17T05:17:37.700Z,13.80
2018-09-17T05:20:06.032Z,13.80
2018-09-17T05:22:34.334Z,13.80
2018-09-17T05:25:02.677Z,13.80
2018-09-17T05:27:31.007Z,13.80
2018-09-17T05:29:59.318Z,13.80
2018-09-17T05:32:27.607Z,13.80
2018-09-17T05:34:55.956Z,13.80
2018-09-17T05:37:24.439Z,13.80
2018-09-17T05:39:59.019Z,13.80
2018-09-17T05:43:57.397Z,13.90
2018-09-17T05:46:25.728Z,13.80
2018-09-17T05:48:54.077Z,13.90
2018-09-17T05:51:22.364Z,13.90
2018-09-17T05:53:50.766Z,13.90
2018-09-17T05:56:19.552Z,14.00
2018-09-17T05:58:47.891Z,14.00
2018-09-17T06:01:16.190Z,14.10
2018-09-17T06:03:44.518Z,14.10
2018-09-17T06:06:12.832Z,14.20
2018-09-17T06:08:41.132Z,14.20
2018-09-17T06:11:09.883Z,14.30
2018-09-17T06:13:38.210Z,14.30
2018-09-17T06:16:06.540Z,14.30
2018-09-17T06:18:34.895Z,14.40
2018-09-17T06:26:52.994Z,14.50
2018-09-17T06:29:21.283Z,14.50
2018-09-17T06:31:49.613Z,14.60
2018-09-17T06:34:17.910Z,14.70
2018-09-17T06:36:47.094Z,14.80
2018-09-17T06:39:15.964Z,14.90
2018-09-17T06:41:44.811Z,14.90
2018-09-17T06:44:14.064Z,15.00
2018-09-17T06:46:43.024Z,15.10
2018-09-17T07:06:32.012Z,15.60
2018-09-17T07:09:00.894Z,15.70
2018-09-17T07:11:29.894Z,15.70
2018-09-17T07:13:58.765Z,15.90
2018-09-17T07:16:27.678Z,15.90
2018-09-17T07:18:56.791Z,16.00
2018-09-17T07:21:25.660Z,16.10
2018-09-17T07:23:54.582Z,16.20
2018-09-17T07:26:23.514Z,16.30
2018-09-17T07:46:12.965Z,16.60
2018-09-17T07:55:26.995Z,16.70
2018-09-17T07:57:55.866Z,16.90
2018-09-17T08:00:24.329Z,16.90
2018-09-17T08:02:53.295Z,17.00
2018-09-17T08:05:22.158Z,17.10
2018-09-17T08:25:11.451Z,17.80
2018-09-17T08:27:40.319Z,17.90
2018-09-17T08:30:09.984Z,18.00
2018-09-17T08:32:38.927Z,18.00
2018-09-17T08:35:08.930Z,18.10
2018-09-17T08:37:37.832Z,18.20
2018-09-17T08:40:07.110Z,18.30
2018-09-17T08:42:36.079Z,18.40
2018-09-17T08:45:05.312Z,18.50
2018-09-17T08:50:33.192Z,18.70
2018-09-17T08:53:02.177Z,18.70
2018-09-17T08:55:36.870Z,18.80
2018-09-17T08:58:11.116Z,18.80
2018-09-17T09:00:45.488Z,18.80
2018-09-17T09:03:18.597Z,18.70
2018-09-17T09:05:52.958Z,18.70
2018-09-17T09:08:21.824Z,18.70
2018-09-17T09:10:59.665Z,18.80
2018-09-17T09:15:39.179Z,18.90
2018-09-17T09:18:09.060Z,18.90
2018-09-17T09:20:39.088Z,19.00
2018-09-17T09:23:08.266Z,19.00
2018-09-17T09:25:37.152Z,19.10
2018-09-17T09:28:06.190Z,19.10
2018-09-17T09:30:35.147Z,19.20
2018-09-17T09:36:04.408Z,19.40
2018-09-17T09:38:33.268Z,19.40
2018-09-17T09:41:02.187Z,19.60
2018-09-17T09:43:31.093Z,19.50
2018-09-17T09:46:00.002Z,19.40
2018-09-17T09:48:28.915Z,19.40
2018-09-17T09:50:57.830Z,19.50
2018-09-17T09:53:26.849Z,19.50
2018-09-17T09:55:56.074Z,19.50
2018-09-17T10:01:32.194Z,19.50
2018-09-17T10:04:06.384Z,19.50
2018-09-17T10:06:35.289Z,19.50
2018-09-17T10:09:10.379Z,19.50
2018-09-17T10:11:44.598Z,19.50
2018-09-17T10:14:18.883Z,19.40
2018-09-17T10:16:53.234Z,19.40
2018-09-17T10:19:24.192Z,19.50
2018-09-17T10:27:45.512Z,19.70
2018-09-17T10:30:14.428Z,19.70
2018-09-17T10:32:43.329Z,19.70
2018-09-17T10:35:12.284Z,19.90
2018-09-17T10:37:41.156Z,19.90
2018-09-17T10:40:10.059Z,20.00
2018-09-17T10:42:38.933Z,19.90
2018-09-17T10:45:07.817Z,20.00
2018-09-17T10:47:36.730Z,20.10
2018-09-17T10:50:06.046Z,20.20
2018-09-17T10:52:34.921Z,20.30
2018-09-17T10:55:04.076Z,20.30
2018-09-17T10:57:32.992Z,20.40
2018-09-17T11:00:02.074Z,20.50
2018-09-17T11:02:31.018Z,20.50
2018-09-17T11:04:59.915Z,20.50
2018-09-17T11:07:28.803Z,20.60
2018-09-17T11:09:57.655Z,20.70
2018-09-17T11:18:13.596Z,20.80
2018-09-17T11:20:42.489Z,20.80
2018-09-17T11:23:11.562Z,20.90
2018-09-17T11:25:40.489Z,21.00
2018-09-17T11:28:09.485Z,21.10
2018-09-17T11:30:38.358Z,21.10
2018-09-17T11:33:07.266Z,21.10
2018-09-17T11:35:36.161Z,21.10
2018-09-17T11:38:05.416Z,21.20
2018-09-17T11:40:34.364Z,21.30
2018-09-17T11:43:03.336Z,21.30
2018-09-17T11:45:32.204Z,21.40
2018-09-17T11:48:01.070Z,21.50
2018-09-17T11:50:30.306Z,21.50
2018-09-17T11:52:59.195Z,21.50
2018-09-17T11:55:31.275Z,21.60
2018-09-17T11:58:00.507Z,21.70
2018-09-17T12:00:34.552Z,21.70
2018-09-17T12:03:08.815Z,21.80
2018-09-17T12:05:43.148Z,21.90
2018-09-17T12:08:15.220Z,22.00
2018-09-17T12:10:44.085Z,22.10
2018-09-17T12:13:12.974Z,22.10
2018-09-17T12:15:43.041Z,22.20
2018-09-17T12:18:13.046Z,22.30
2018-09-17T12:20:42.313Z,22.30
2018-09-17T12:23:11.447Z,22.40
2018-09-17T12:25:40.376Z,22.40
2018-09-17T12:28:09.613Z,22.50
2018-09-17T12:30:38.536Z,22.50
2018-09-17T12:33:07.428Z,22.60
2018-09-17T12:35:36.342Z,22.60
2018-09-17T12:38:05.717Z,22.70
2018-09-17T12:40:34.621Z,22.70
2018-09-17T12:43:03.545Z,22.80
2018-09-17T12:45:32.648Z,22.80
2018-09-17T12:48:01.540Z,22.90
2018-09-17T12:50:30.426Z,22.90
2018-09-17T12:52:59.505Z,23.00
2018-09-17T12:55:28.369Z,23.10
2018-09-17T12:57:57.233Z,23.10
2018-09-17T13:06:12.459Z,23.20
2018-09-17T13:08:41.355Z,23.20
2018-09-17T13:11:10.611Z,23.20
2018-09-17T13:13:40.079Z,23.20
2018-09-17T13:16:08.975Z,23.30
2018-09-17T13:18:37.862Z,23.30
2018-09-17T13:21:06.720Z,23.30
2018-09-17T13:23:35.602Z,23.40
2018-09-17T13:26:04.832Z,23.40
2018-09-17T13:28:33.703Z,23.40
2018-09-17T13:31:02.591Z,23.40
2018-09-17T13:33:31.481Z,23.50
2018-09-17T13:36:00.546Z,23.60
2018-09-17T13:38:29.441Z,23.60
2018-09-17T13:40:58.291Z,23.70
2018-09-17T13:43:27.177Z,23.70
2018-09-17T13:45:56.261Z,23.80
2018-09-17T13:48:25.314Z,23.90
2018-09-17T13:53:48.185Z,24.00
2018-09-17T13:56:17.229Z,24.10
2018-09-17T13:58:46.089Z,24.20
2018-09-17T14:01:14.673Z,24.20
2018-09-17T14:03:43.545Z,24.40
2018-09-17T14:06:12.419Z,24.40
2018-09-17T14:08:41.504Z,24.40
2018-09-17T14:11:10.364Z,24.50
2018-09-17T14:13:39.277Z,24.60
2018-09-17T14:33:37.749Z,25.20
2018-09-17T14:36:06.804Z,25.20
2018-09-17T14:38:36.051Z,25.20
2018-09-17T14:41:05.145Z,25.30
2018-09-17T14:43:33.972Z,25.30
2018-09-17T14:46:03.081Z,25.30
2018-09-17T14:48:32.163Z,25.30
2018-09-17T14:51:01.241Z,25.30
2018-09-17T14:59:17.252Z,25.40
2018-09-17T15:01:46.067Z,25.40
2018-09-17T15:04:15.316Z,25.40
2018-09-17T15:06:44.355Z,25.40
2018-09-17T15:09:13.220Z,25.40
2018-09-17T15:11:41.799Z,25.40
2018-09-17T15:14:10.910Z,25.40
2018-09-17T15:16:39.710Z,25.50
2018-09-17T15:19:08.367Z,25.80
2018-09-17T15:21:37.168Z,26.10
2018-09-17T15:24:06.180Z,26.40
2018-09-17T15:26:34.910Z,26.70
2018-09-17T15:29:04.083Z,27.10
2018-09-17T15:31:32.665Z,27.30
2018-09-17T15:34:01.335Z,27.40
2018-09-17T15:36:30.261Z,27.70
2018-09-17T15:38:59.118Z,28.00
2018-09-17T15:41:27.979Z,28.10
2018-09-17T15:43:56.699Z,28.30
2018-09-17T15:46:25.539Z,28.50
2018-09-17T15:48:54.166Z,28.70
2018-09-17T15:51:22.821Z,29.00
2018-09-17T15:53:51.481Z,29.20
2018-09-17T15:56:20.198Z,29.40
2018-09-17T15:58:48.967Z,29.40
2018-09-17T16:01:17.514Z,29.50
2018-09-17T16:03:46.090Z,29.60
2018-09-17T16:06:14.683Z,29.70
2018-09-17T16:08:43.303Z,29.90
2018-09-17T16:11:12.103Z,29.90
2018-09-17T16:13:40.734Z,29.90
2018-09-17T16:16:09.647Z,30.10
2018-09-17T16:18:38.242Z,30.10
2018-09-17T16:21:06.842Z,30.10
2018-09-17T16:23:35.454Z,30.20
2018-09-17T16:26:04.199Z,30.20
2018-09-17T16:28:32.808Z,30.00
2018-09-17T16:31:01.412Z,29.80
2018-09-17T16:33:30.284Z,29.30
2018-09-17T16:35:59.047Z,28.90
2018-09-17T16:38:27.662Z,28.40
2018-09-17T16:40:56.291Z,27.90
2018-09-17T16:43:25.068Z,27.40
2018-09-17T16:45:53.668Z,26.90
2018-09-17T16:48:22.430Z,26.60
2018-09-17T16:50:51.084Z,26.30
2018-09-17T16:53:20.500Z,25.80
2018-09-17T16:55:49.203Z,25.50
2018-09-17T16:58:17.909Z,25.20
2018-09-17T17:00:47.201Z,24.90
2018-09-17T17:03:16.108Z,24.80
2018-09-17T17:05:45.021Z,24.60
2018-09-17T17:08:14.097Z,24.30
2018-09-17T17:10:43.035Z,24.10
2018-09-17T17:13:12.094Z,23.90
2018-09-17T17:15:41.144Z,23.70
2018-09-17T17:18:10.562Z,23.60
2018-09-17T17:20:39.858Z,23.40
2018-09-17T17:23:08.804Z,23.20
2018-09-17T17:25:37.723Z,23.00
2018-09-17T17:28:06.729Z,22.90
2018-09-17T17:30:35.830Z,22.70
2018-09-17T17:33:04.948Z,22.60
2018-09-17T17:35:34.017Z,22.50
2018-09-17T17:38:03.031Z,22.40
2018-09-17T17:40:32.162Z,22.20
2018-09-17T17:43:01.098Z,22.10
2018-09-17T17:45:29.984Z,21.90
2018-09-17T17:47:58.958Z,21.80
2018-09-17T17:50:27.864Z,21.60
2018-09-17T17:52:56.813Z,21.50
2018-09-17T17:55:25.704Z,21.40
2018-09-17T17:57:54.699Z,21.20
2018-09-17T18:00:23.238Z,21.10
2018-09-17T18:02:52.257Z,21.00
2018-09-17T18:05:21.137Z,20.80
2018-09-17T18:07:50.071Z,20.70
2018-09-17T18:10:18.934Z,20.60
2018-09-17T18:12:47.852Z,20.40
2018-09-17T18:15:16.824Z,20.30
2018-09-17T18:17:45.914Z,20.20
2018-09-17T18:20:14.860Z,20.10
2018-09-17T18:22:43.806Z,19.90
2018-09-17T18:25:13.017Z,19.80
2018-09-17T18:27:41.906Z,19.70
2018-09-17T18:30:10.793Z,19.60
2018-09-17T18:32:39.766Z,19.50
2018-09-17T18:35:08.835Z,19.50
2018-09-17T18:37:38.021Z,19.40
2018-09-17T18:40:07.017Z,19.30
2018-09-17T18:42:36.198Z,19.20
2018-09-17T18:45:05.325Z,19.20
2018-09-17T18:47:34.426Z,19.10
2018-09-17T18:50:03.706Z,19.00
2018-09-17T18:52:32.935Z,18.90
2018-09-17T18:55:01.974Z,18.80
2018-09-17T18:57:31.109Z,18.70
2018-09-17T19:00:00.173Z,18.60
2018-09-17T19:02:29.079Z,18.60
2018-09-17T19:04:58.027Z,18.60
2018-09-17T19:07:26.965Z,18.50
2018-09-17T19:09:55.875Z,18.50
2018-09-17T19:12:25.197Z,18.40
2018-09-17T19:14:59.634Z,18.30
2018-09-17T19:17:33.900Z,18.30
2018-09-17T19:20:10.327Z,18.30
2018-09-17T19:22:45.064Z,18.30
2018-09-17T19:25:15.519Z,18.30
2018-09-17T19:27:50.160Z,18.30
2018-09-17T19:30:19.304Z,18.30
2018-09-17T19:32:48.316Z,18.20
2018-09-17T19:35:17.264Z,18.20
2018-09-17T19:37:51.549Z,18.20
2018-09-17T19:40:22.021Z,18.20
2018-09-17T19:42:51.285Z,18.10
2018-09-17T19:46:22.953Z,18.10
2018-09-17T19:48:52.029Z,18.10
2018-09-17T19:51:26.419Z,18.10
2018-09-17T19:53:55.867Z,18.10
2018-09-17T19:56:24.981Z,18.00
2018-09-17T19:58:59.283Z,18.10
2018-09-17T20:01:28.030Z,18.00
2018-09-17T20:04:00.982Z,18.00
2018-09-17T20:06:30.031Z,18.00
2018-09-17T20:08:59.070Z,18.00
2018-09-17T20:11:27.966Z,18.00
2018-09-17T20:13:56.916Z,18.00
2018-09-17T20:16:25.895Z,18.00
2018-09-17T20:18:54.811Z,18.00
2018-09-17T20:21:23.724Z,17.90
2018-09-17T20:23:52.651Z,17.90
2018-09-17T20:26:21.575Z,17.90
2018-09-17T20:28:50.513Z,17.90
2018-09-17T20:31:19.405Z,17.90
2018-09-17T20:33:48.730Z,17.80
2018-09-17T20:36:19.365Z,17.80
2018-09-17T20:38:48.379Z,17.80
2018-09-17T20:41:17.453Z,17.80
2018-09-17T20:43:46.364Z,17.70
2018-09-17T20:46:15.307Z,17.70
2018-09-17T20:48:44.753Z,17.70
2018-09-17T20:51:13.752Z,17.60
2018-09-17T20:53:42.710Z,17.60
2018-09-17T20:56:11.740Z,17.60
2018-09-17T20:58:41.088Z,17.50
2018-09-17T21:01:10.159Z,17.50
2018-09-17T21:03:39.113Z,17.50
2018-09-17T21:06:08.045Z,17.60
2018-09-17T21:08:36.959Z,17.60
2018-09-17T21:11:05.839Z,17.50
2018-09-17T21:13:34.755Z,17.50
2018-09-17T21:16:03.898Z,17.50
2018-09-17T21:18:33.006Z,17.50
2018-09-17T21:21:02.367Z,17.50
2018-09-17T21:23:31.260Z,17.50
2018-09-17T21:26:00.190Z,17.40
2018-09-17T21:28:29.374Z,17.40
2018-09-17T21:30:58.429Z,17.30
2018-09-17T21:33:27.359Z,17.30
2018-09-17T21:35:56.277Z,17.20
2018-09-17T21:38:25.156Z,17.10
2018-09-17T21:40:54.094Z,17.10
2018-09-17T21:43:23.187Z,16.90
2018-09-17T21:45:52.228Z,16.90
2018-09-17T21:48:21.156Z,16.70
2018-09-17T21:50:50.013Z,16.70
2018-09-17T21:53:18.869Z,16.70
2018-09-17T21:55:47.711Z,16.60
2018-09-17T21:58:16.717Z,16.70
2018-09-17T22:00:51.006Z,16.70
2018-09-17T22:03:20.170Z,16.70
2018-09-17T22:05:49.196Z,16.70
2018-09-17T22:08:18.048Z,16.80
2018-09-17T22:10:46.909Z,16.70
2018-09-17T22:13:15.777Z,16.80
2018-09-17T22:15:44.674Z,16.80
2018-09-17T22:18:13.561Z,16.80
2018-09-17T22:20:42.729Z,16.80
2018-09-17T22:23:11.699Z,16.80
2018-09-17T22:25:40.934Z,16.70
2018-09-17T22:28:09.900Z,16.80
2018-09-17T22:30:38.820Z,16.70
2018-09-17T22:33:07.709Z,16.70
2018-09-17T22:35:36.607Z,16.70
2018-09-17T22:38:05.651Z,16.70
2018-09-17T22:40:34.589Z,16.70
2018-09-17T22:43:03.464Z,16.60
2018-09-17T22:45:32.329Z,16.70
2018-09-17T22:48:01.219Z,16.60
2018-09-17T22:50:30.078Z,16.60
2018-09-17T22:52:58.979Z,16.60
2018-09-17T22:55:27.798Z,16.60
2018-09-17T22:57:56.689Z,16.60
2018-09-17T23:00:25.515Z,16.60
2018-09-17T23:02:54.385Z,16.60
2018-09-17T23:05:23.273Z,16.60
2018-09-17T23:07:52.160Z,16.60
2018-09-17T23:10:21.371Z,16.60
2018-09-17T23:12:50.236Z,16.50
2018-09-17T23:15:19.118Z,16.50
2018-09-17T23:17:47.994Z,16.60
2018-09-17T23:20:16.883Z,16.60
2018-09-17T23:22:46.080Z,16.60
2018-09-17T23:25:14.991Z,16.60
2018-09-17T23:27:43.841Z,16.60
2018-09-17T23:30:12.687Z,16.60
2018-09-17T23:32:41.591Z,16.60
2018-09-17T23:35:10.449Z,16.60
2018-09-17T23:37:39.303Z,16.60
2018-09-17T23:40:08.142Z,16.60
2018-09-17T23:42:37.018Z,16.70
2018-09-17T23:45:05.926Z,16.70
2018-09-17T23:47:34.783Z,16.70
2018-09-17T23:50:03.697Z,16.70
2018-09-17T23:52:32.547Z,16.70
2018-09-17T23:55:01.417Z,16.70
2018-09-17T23:57:30.277Z,16.70
2018-09-17T23:59:59.142Z,16.60
